sensor_id;sensor_type;location;lat;lon;timestamp;P1;durP1;ratioP1;P2;durP2;ratioP2
3975;SDS011;2002;48.812;9.180;2023-02-28T00:00:47;1.13;;;1.00;;
3975;SDS011;2002;48.812;9.180;2023-02-28T00:03:13;1.10;;;0.97;;
3975;SDS011;2002;48.812;9.180;2023-02-28T00:05:38;1.73;;;1.63;;
3975;SDS011;2002;48.812;9.180;2023-02-28T00:08:04;1.10;;;1.00;;
3975;SDS011;2002;48.812;9.180;2023-02-28T00:10:30;1.90;;;1.00;;
3975;SDS011;2002;48.812;9.180;2023-02-28T00:12:59;1.57;;;1.20;;
3975;SDS011;2002;48.812;9.180;2023-02-28T00:15:27;1.30;;;1.20;;
3975;SDS011;2002;48.812;9.180;2023-02-28T00:17:53;1.30;;;1.13;;
3975;SDS011;2002;48.812;9.180;2023-02-28T00:20:18;1.20;;;1.10;;
3975;SDS011;2002;48.812;9.180;2023-02-28T00:22:45;1.50;;;1.40;;
3975;SDS011;2002;48.812;9.180;2023-02-28T00:25:14;0.90;;;0.90;;
3975;SDS011;2002;48.812;9.180;2023-02-28T00:27:41;1.63;;;1.03;;
3975;SDS011;2002;48.812;9.180;2023-02-28T00:30:08;1.70;;;1.30;;
3975;SDS011;2002;48.812;9.180;2023-02-28T00:32:38;1.33;;;1.20;;
3975;SDS011;2002;48.812;9.180;2023-02-28T00:35:04;1.13;;;1.00;;
3975;SDS011;2002;48.812;9.180;2023-02-28T00:37:31;1.30;;;1.20;;
3975;SDS011;2002;48.812;9.180;2023-02-28T00:39:57;1.37;;;1.23;;
3975;SDS011;2002;48.812;9.180;2023-02-28T00:42:22;1.33;;;1.23;;
3975;SDS011;2002;48.812;9.180;2023-02-28T00:44:49;1.10;;;1.00;;
3975;SDS011;2002;48.812;9.180;2023-02-28T00:47:14;1.43;;;1.10;;
3975;SDS011;2002;48.812;9.180;2023-02-28T00:49:40;3.47;;;1.53;;
3975;SDS011;2002;48.812;9.180;2023-02-28T00:52:06;1.07;;;0.97;;
3975;SDS011;2002;48.812;9.180;2023-02-28T00:54:32;1.10;;;0.90;;
3975;SDS011;2002;48.812;9.180;2023-02-28T00:56:57;0.90;;;0.90;;
3975;SDS011;2002;48.812;9.180;2023-02-28T00:59:23;1.23;;;1.00;;
3975;SDS011;2002;48.812;9.180;2023-02-28T01:01:48;1.67;;;0.90;;
3975;SDS011;2002;48.812;9.180;2023-02-28T01:04:14;1.20;;;1.10;;
3975;SDS011;2002;48.812;9.180;2023-02-28T01:06:40;1.50;;;1.40;;
3975;SDS011;2002;48.812;9.180;2023-02-28T01:09:07;1.53;;;0.90;;
3975;SDS011;2002;48.812;9.180;2023-02-28T01:11:33;1.37;;;1.20;;
3975;SDS011;2002;48.812;9.180;2023-02-28T01:13:59;2.40;;;1.27;;
3975;SDS011;2002;48.812;9.180;2023-02-28T01:16:25;1.50;;;1.40;;
3975;SDS011;2002;48.812;9.180;2023-02-28T01:18:51;1.00;;;1.00;;
3975;SDS011;2002;48.812;9.180;2023-02-28T01:21:17;1.87;;;1.40;;
3975;SDS011;2002;48.812;9.180;2023-02-28T01:23:45;1.37;;;1.27;;
3975;SDS011;2002;48.812;9.180;2023-02-28T01:26:15;1.50;;;1.00;;
3975;SDS011;2002;48.812;9.180;2023-02-28T01:28:45;1.23;;;1.13;;
3975;SDS011;2002;48.812;9.180;2023-02-28T01:31:12;1.93;;;1.13;;
3975;SDS011;2002;48.812;9.180;2023-02-28T01:33:38;1.40;;;1.17;;
3975;SDS011;2002;48.812;9.180;2023-02-28T01:36:05;1.33;;;0.97;;
3975;SDS011;2002;48.812;9.180;2023-02-28T01:38:34;1.37;;;1.27;;
3975;SDS011;2002;48.812;9.180;2023-02-28T01:41:00;1.10;;;1.00;;
3975;SDS011;2002;48.812;9.180;2023-02-28T01:43:27;1.67;;;1.40;;
3975;SDS011;2002;48.812;9.180;2023-02-28T01:45:54;2.33;;;1.43;;
3975;SDS011;2002;48.812;9.180;2023-02-28T01:48:23;1.27;;;1.17;;
3975;SDS011;2002;48.812;9.180;2023-02-28T01:50:52;1.10;;;1.00;;
3975;SDS011;2002;48.812;9.180;2023-02-28T01:53:22;1.70;;;1.50;;
3975;SDS011;2002;48.812;9.180;2023-02-28T01:55:59;1.60;;;1.40;;
3975;SDS011;2002;48.812;9.180;2023-02-28T01:58:28;1.20;;;1.10;;
3975;SDS011;2002;48.812;9.180;2023-02-28T02:00:54;1.77;;;1.27;;
3975;SDS011;2002;48.812;9.180;2023-02-28T02:03:19;1.60;;;1.10;;
3975;SDS011;2002;48.812;9.180;2023-02-28T02:05:45;1.20;;;1.10;;
3975;SDS011;2002;48.812;9.180;2023-02-28T02:08:13;1.20;;;1.07;;
3975;SDS011;2002;48.812;9.180;2023-02-28T02:10:44;1.30;;;1.00;;
3975;SDS011;2002;48.812;9.180;2023-02-28T02:16:02;1.30;;;1.10;;
3975;SDS011;2002;48.812;9.180;2023-02-28T02:18:43;1.60;;;1.07;;
3975;SDS011;2002;48.812;9.180;2023-02-28T02:21:33;1.77;;;1.30;;
3975;SDS011;2002;48.812;9.180;2023-02-28T02:24:28;1.77;;;1.60;;
3975;SDS011;2002;48.812;9.180;2023-02-28T02:41:14;1.43;;;1.23;;
3975;SDS011;2002;48.812;9.180;2023-02-28T02:43:46;1.30;;;1.20;;
3975;SDS011;2002;48.812;9.180;2023-02-28T02:48:55;1.23;;;1.13;;
3975;SDS011;2002;48.812;9.180;2023-02-28T02:51:24;1.90;;;1.40;;
3975;SDS011;2002;48.812;9.180;2023-02-28T02:53:55;1.30;;;1.20;;
3975;SDS011;2002;48.812;9.180;2023-02-28T02:56:26;1.50;;;1.30;;
3975;SDS011;2002;48.812;9.180;2023-02-28T02:58:55;1.40;;;1.30;;
3975;SDS011;2002;48.812;9.180;2023-02-28T03:01:26;1.17;;;1.10;;
3975;SDS011;2002;48.812;9.180;2023-02-28T03:03:55;1.27;;;1.17;;
3975;SDS011;2002;48.812;9.180;2023-02-28T03:06:23;2.03;;;1.67;;
3975;SDS011;2002;48.812;9.180;2023-02-28T03:08:49;1.97;;;1.30;;
3975;SDS011;2002;48.812;9.180;2023-02-28T03:11:15;1.43;;;1.33;;
3975;SDS011;2002;48.812;9.180;2023-02-28T03:13:51;1.60;;;1.40;;
3975;SDS011;2002;48.812;9.180;2023-02-28T03:30:00;1.43;;;1.33;;
3975;SDS011;2002;48.812;9.180;2023-02-28T03:35:28;1.40;;;1.10;;
3975;SDS011;2002;48.812;9.180;2023-02-28T03:38:06;1.20;;;1.10;;
3975;SDS011;2002;48.812;9.180;2023-02-28T03:40:47;1.40;;;1.30;;
3975;SDS011;2002;48.812;9.180;2023-02-28T03:43:21;1.23;;;1.13;;
3975;SDS011;2002;48.812;9.180;2023-02-28T03:45:50;1.23;;;1.13;;
3975;SDS011;2002;48.812;9.180;2023-02-28T03:50:49;1.10;;;1.00;;
3975;SDS011;2002;48.812;9.180;2023-02-28T03:53:21;2.00;;;1.50;;
3975;SDS011;2002;48.812;9.180;2023-02-28T03:58:51;1.43;;;1.33;;
3975;SDS011;2002;48.812;9.180;2023-02-28T04:01:30;1.43;;;1.30;;
3975;SDS011;2002;48.812;9.180;2023-02-28T04:04:06;2.17;;;1.30;;
3975;SDS011;2002;48.812;9.180;2023-02-28T04:06:32;1.40;;;1.27;;
3975;SDS011;2002;48.812;9.180;2023-02-28T04:08:59;1.27;;;1.10;;
3975;SDS011;2002;48.812;9.180;2023-02-28T04:11:30;1.63;;;1.20;;
3975;SDS011;2002;48.812;9.180;2023-02-28T04:13:57;1.20;;;1.10;;
3975;SDS011;2002;48.812;9.180;2023-02-28T04:16:23;1.37;;;1.27;;
3975;SDS011;2002;48.812;9.180;2023-02-28T04:18:49;1.23;;;1.13;;
3975;SDS011;2002;48.812;9.180;2023-02-28T04:21:14;1.10;;;1.00;;
3975;SDS011;2002;48.812;9.180;2023-02-28T04:23:40;1.50;;;1.10;;
3975;SDS011;2002;48.812;9.180;2023-02-28T04:26:05;1.13;;;1.13;;
3975;SDS011;2002;48.812;9.180;2023-02-28T04:28:32;1.53;;;1.37;;
3975;SDS011;2002;48.812;9.180;2023-02-28T04:31:02;1.67;;;1.57;;
3975;SDS011;2002;48.812;9.180;2023-02-28T04:33:29;1.63;;;1.20;;
3975;SDS011;2002;48.812;9.180;2023-02-28T04:36:00;1.40;;;1.30;;
3975;SDS011;2002;48.812;9.180;2023-02-28T04:38:27;1.20;;;1.10;;
3975;SDS011;2002;48.812;9.180;2023-02-28T04:40:56;2.93;;;1.67;;
3975;SDS011;2002;48.812;9.180;2023-02-28T04:43:23;2.30;;;1.70;;
3975;SDS011;2002;48.812;9.180;2023-02-28T04:45:48;1.67;;;1.47;;
3975;SDS011;2002;48.812;9.180;2023-02-28T04:48:14;1.40;;;1.23;;
3975;SDS011;2002;48.812;9.180;2023-02-28T04:50:39;1.57;;;1.37;;
3975;SDS011;2002;48.812;9.180;2023-02-28T04:53:05;2.20;;;1.50;;
3975;SDS011;2002;48.812;9.180;2023-02-28T04:55:31;1.00;;;1.00;;
3975;SDS011;2002;48.812;9.180;2023-02-28T04:57:56;1.30;;;1.20;;
3975;SDS011;2002;48.812;9.180;2023-02-28T05:00:22;1.37;;;1.27;;
3975;SDS011;2002;48.812;9.180;2023-02-28T05:02:48;2.00;;;1.50;;
3975;SDS011;2002;48.812;9.180;2023-02-28T05:05:13;1.13;;;1.03;;
3975;SDS011;2002;48.812;9.180;2023-02-28T05:07:43;1.50;;;1.40;;
3975;SDS011;2002;48.812;9.180;2023-02-28T05:10:10;3.47;;;1.70;;
3975;SDS011;2002;48.812;9.180;2023-02-28T05:12:36;1.67;;;1.47;;
3975;SDS011;2002;48.812;9.180;2023-02-28T05:15:02;1.70;;;1.60;;
3975;SDS011;2002;48.812;9.180;2023-02-28T05:17:29;1.60;;;1.50;;
3975;SDS011;2002;48.812;9.180;2023-02-28T05:19:55;1.27;;;1.17;;
3975;SDS011;2002;48.812;9.180;2023-02-28T05:22:21;1.83;;;1.50;;
3975;SDS011;2002;48.812;9.180;2023-02-28T05:24:46;1.90;;;1.37;;
3975;SDS011;2002;48.812;9.180;2023-02-28T05:27:12;1.60;;;1.20;;
3975;SDS011;2002;48.812;9.180;2023-02-28T05:29:37;1.57;;;1.20;;
3975;SDS011;2002;48.812;9.180;2023-02-28T05:32:11;2.03;;;1.50;;
3975;SDS011;2002;48.812;9.180;2023-02-28T05:34:37;1.13;;;1.03;;
3975;SDS011;2002;48.812;9.180;2023-02-28T05:37:04;1.27;;;1.17;;
3975;SDS011;2002;48.812;9.180;2023-02-28T05:39:31;1.43;;;1.30;;
3975;SDS011;2002;48.812;9.180;2023-02-28T05:41:58;1.27;;;1.17;;
3975;SDS011;2002;48.812;9.180;2023-02-28T05:44:23;1.40;;;1.30;;
3975;SDS011;2002;48.812;9.180;2023-02-28T05:46:49;1.57;;;1.20;;
3975;SDS011;2002;48.812;9.180;2023-02-28T05:49:15;1.47;;;1.37;;
3975;SDS011;2002;48.812;9.180;2023-02-28T05:51:40;1.73;;;1.20;;
3975;SDS011;2002;48.812;9.180;2023-02-28T05:54:06;1.77;;;1.67;;
3975;SDS011;2002;48.812;9.180;2023-02-28T05:56:31;1.20;;;1.10;;
3975;SDS011;2002;48.812;9.180;2023-02-28T05:58:59;1.90;;;1.40;;
3975;SDS011;2002;48.812;9.180;2023-02-28T06:01:35;1.40;;;1.30;;
3975;SDS011;2002;48.812;9.180;2023-02-28T06:04:02;1.40;;;1.30;;
3975;SDS011;2002;48.812;9.180;2023-02-28T06:06:28;1.60;;;1.50;;
3975;SDS011;2002;48.812;9.180;2023-02-28T06:08:54;1.83;;;1.70;;
3975;SDS011;2002;48.812;9.180;2023-02-28T06:11:21;1.43;;;1.33;;
3975;SDS011;2002;48.812;9.180;2023-02-28T06:13:52;1.97;;;1.37;;
3975;SDS011;2002;48.812;9.180;2023-02-28T06:16:19;1.70;;;1.60;;
3975;SDS011;2002;48.812;9.180;2023-02-28T06:18:44;1.50;;;1.40;;
3975;SDS011;2002;48.812;9.180;2023-02-28T06:21:11;1.87;;;1.27;;
3975;SDS011;2002;48.812;9.180;2023-02-28T06:23:37;1.77;;;1.60;;
3975;SDS011;2002;48.812;9.180;2023-02-28T06:26:02;2.40;;;1.90;;
3975;SDS011;2002;48.812;9.180;2023-02-28T06:28:28;1.30;;;1.20;;
3975;SDS011;2002;48.812;9.180;2023-02-28T06:30:54;2.33;;;1.33;;
3975;SDS011;2002;48.812;9.180;2023-02-28T06:33:20;2.17;;;1.20;;
3975;SDS011;2002;48.812;9.180;2023-02-28T06:35:52;1.93;;;1.60;;
3975;SDS011;2002;48.812;9.180;2023-02-28T06:38:18;1.77;;;1.37;;
3975;SDS011;2002;48.812;9.180;2023-02-28T06:40:44;1.80;;;1.70;;
3975;SDS011;2002;48.812;9.180;2023-02-28T06:43:10;1.30;;;1.20;;
3975;SDS011;2002;48.812;9.180;2023-02-28T06:45:42;1.70;;;1.60;;
3975;SDS011;2002;48.812;9.180;2023-02-28T06:48:08;1.77;;;1.53;;
3975;SDS011;2002;48.812;9.180;2023-02-28T06:50:35;1.47;;;1.37;;
3975;SDS011;2002;48.812;9.180;2023-02-28T06:53:00;1.50;;;1.40;;
3975;SDS011;2002;48.812;9.180;2023-02-28T06:55:26;1.53;;;1.43;;
3975;SDS011;2002;48.812;9.180;2023-02-28T06:57:51;3.00;;;2.00;;
3975;SDS011;2002;48.812;9.180;2023-02-28T07:00:17;1.50;;;1.40;;
3975;SDS011;2002;48.812;9.180;2023-02-28T07:02:43;2.90;;;1.50;;
3975;SDS011;2002;48.812;9.180;2023-02-28T07:05:09;1.33;;;1.20;;
3975;SDS011;2002;48.812;9.180;2023-02-28T07:07:34;1.60;;;1.50;;
3975;SDS011;2002;48.812;9.180;2023-02-28T07:10:03;1.70;;;1.53;;
3975;SDS011;2002;48.812;9.180;2023-02-28T07:12:29;1.50;;;1.33;;
3975;SDS011;2002;48.812;9.180;2023-02-28T07:14:54;1.60;;;1.47;;
3975;SDS011;2002;48.812;9.180;2023-02-28T07:17:20;1.67;;;1.57;;
3975;SDS011;2002;48.812;9.180;2023-02-28T07:19:46;3.83;;;1.87;;
3975;SDS011;2002;48.812;9.180;2023-02-28T07:22:12;1.47;;;1.37;;
3975;SDS011;2002;48.812;9.180;2023-02-28T07:24:37;1.90;;;1.80;;
3975;SDS011;2002;48.812;9.180;2023-02-28T07:27:03;2.47;;;1.50;;
3975;SDS011;2002;48.812;9.180;2023-02-28T07:29:29;2.00;;;1.60;;
3975;SDS011;2002;48.812;9.180;2023-02-28T07:31:54;1.40;;;1.30;;
3975;SDS011;2002;48.812;9.180;2023-02-28T07:34:21;1.60;;;1.50;;
3975;SDS011;2002;48.812;9.180;2023-02-28T07:36:47;2.10;;;1.53;;
3975;SDS011;2002;48.812;9.180;2023-02-28T07:39:12;2.13;;;1.93;;
3975;SDS011;2002;48.812;9.180;2023-02-28T07:41:38;2.03;;;1.60;;
3975;SDS011;2002;48.812;9.180;2023-02-28T07:44:08;1.90;;;1.80;;
3975;SDS011;2002;48.812;9.180;2023-02-28T07:46:37;2.10;;;1.83;;
3975;SDS011;2002;48.812;9.180;2023-02-28T07:49:03;1.63;;;1.47;;
3975;SDS011;2002;48.812;9.180;2023-02-28T07:51:30;1.47;;;1.37;;
3975;SDS011;2002;48.812;9.180;2023-02-28T07:53:56;1.93;;;1.70;;
3975;SDS011;2002;48.812;9.180;2023-02-28T07:56:21;2.10;;;1.63;;
3975;SDS011;2002;48.812;9.180;2023-02-28T07:58:47;2.30;;;1.40;;
3975;SDS011;2002;48.812;9.180;2023-02-28T08:01:12;1.47;;;1.27;;
3975;SDS011;2002;48.812;9.180;2023-02-28T08:03:38;2.03;;;1.83;;
3975;SDS011;2002;48.812;9.180;2023-02-28T08:06:05;2.00;;;1.30;;
3975;SDS011;2002;48.812;9.180;2023-02-28T08:08:32;1.60;;;1.50;;
3975;SDS011;2002;48.812;9.180;2023-02-28T08:10:59;2.30;;;1.20;;
3975;SDS011;2002;48.812;9.180;2023-02-28T08:13:26;1.70;;;1.30;;
3975;SDS011;2002;48.812;9.180;2023-02-28T08:15:53;1.93;;;1.80;;
3975;SDS011;2002;48.812;9.180;2023-02-28T08:18:19;1.43;;;1.27;;
3975;SDS011;2002;48.812;9.180;2023-02-28T08:20:46;2.00;;;1.50;;
3975;SDS011;2002;48.812;9.180;2023-02-28T08:23:12;2.07;;;1.63;;
3975;SDS011;2002;48.812;9.180;2023-02-28T08:25:37;1.83;;;1.67;;
3975;SDS011;2002;48.812;9.180;2023-02-28T08:28:03;1.90;;;1.70;;
3975;SDS011;2002;48.812;9.180;2023-02-28T08:30:29;1.50;;;1.40;;
3975;SDS011;2002;48.812;9.180;2023-02-28T08:32:54;3.30;;;1.60;;
3975;SDS011;2002;48.812;9.180;2023-02-28T08:35:20;2.17;;;1.77;;
3975;SDS011;2002;48.812;9.180;2023-02-28T08:37:49;2.07;;;1.97;;
3975;SDS011;2002;48.812;9.180;2023-02-28T08:40:15;1.67;;;1.50;;
3975;SDS011;2002;48.812;9.180;2023-02-28T08:42:47;2.40;;;2.20;;
3975;SDS011;2002;48.812;9.180;2023-02-28T08:45:13;1.57;;;1.47;;
3975;SDS011;2002;48.812;9.180;2023-02-28T08:47:39;1.77;;;1.67;;
3975;SDS011;2002;48.812;9.180;2023-02-28T08:50:05;1.23;;;1.13;;
3975;SDS011;2002;48.812;9.180;2023-02-28T08:52:32;2.50;;;2.30;;
3975;SDS011;2002;48.812;9.180;2023-02-28T08:54:57;2.07;;;1.87;;
3975;SDS011;2002;48.812;9.180;2023-02-28T08:57:23;1.73;;;1.60;;
3975;SDS011;2002;48.812;9.180;2023-02-28T08:59:51;1.50;;;1.40;;
3975;SDS011;2002;48.812;9.180;2023-02-28T09:02:16;1.83;;;1.27;;
3975;SDS011;2002;48.812;9.180;2023-02-28T09:04:42;1.77;;;1.60;;
3975;SDS011;2002;48.812;9.180;2023-02-28T09:07:10;1.57;;;1.47;;
3975;SDS011;2002;48.812;9.180;2023-02-28T09:09:36;2.27;;;2.00;;
3975;SDS011;2002;48.812;9.180;2023-02-28T09:12:01;1.90;;;1.73;;
3975;SDS011;2002;48.812;9.180;2023-02-28T09:14:27;2.13;;;1.80;;
3975;SDS011;2002;48.812;9.180;2023-02-28T09:16:53;2.80;;;2.60;;
3975;SDS011;2002;48.812;9.180;2023-02-28T09:19:19;2.17;;;1.63;;
3975;SDS011;2002;48.812;9.180;2023-02-28T09:21:45;1.67;;;1.30;;
3975;SDS011;2002;48.812;9.180;2023-02-28T09:24:11;1.87;;;1.77;;
3975;SDS011;2002;48.812;9.180;2023-02-28T09:26:39;2.03;;;1.83;;
3975;SDS011;2002;48.812;9.180;2023-02-28T09:29:05;1.70;;;1.60;;
3975;SDS011;2002;48.812;9.180;2023-02-28T09:31:31;2.03;;;1.87;;
3975;SDS011;2002;48.812;9.180;2023-02-28T09:33:57;3.40;;;1.70;;
3975;SDS011;2002;48.812;9.180;2023-02-28T09:36:24;1.63;;;1.53;;
3975;SDS011;2002;48.812;9.180;2023-02-28T09:38:50;2.23;;;2.00;;
3975;SDS011;2002;48.812;9.180;2023-02-28T09:41:21;1.90;;;1.73;;
3975;SDS011;2002;48.812;9.180;2023-02-28T09:43:51;2.23;;;1.90;;
3975;SDS011;2002;48.812;9.180;2023-02-28T09:49:02;2.07;;;1.87;;
3975;SDS011;2002;48.812;9.180;2023-02-28T09:54:23;1.87;;;1.40;;
3975;SDS011;2002;48.812;9.180;2023-02-28T10:04:41;2.00;;;1.80;;
3975;SDS011;2002;48.812;9.180;2023-02-28T10:07:35;2.47;;;1.70;;
3975;SDS011;2002;48.812;9.180;2023-02-28T10:10:21;5.77;;;2.10;;
3975;SDS011;2002;48.812;9.180;2023-02-28T10:12:54;10.37;;;2.63;;
3975;SDS011;2002;48.812;9.180;2023-02-28T10:15:24;11.03;;;2.77;;
3975;SDS011;2002;48.812;9.180;2023-02-28T10:18:12;6.60;;;3.33;;
3975;SDS011;2002;48.812;9.180;2023-02-28T10:20:41;7.73;;;2.50;;
3975;SDS011;2002;48.812;9.180;2023-02-28T10:23:12;3.10;;;1.77;;
3975;SDS011;2002;48.812;9.180;2023-02-28T10:25:46;3.60;;;2.10;;
3975;SDS011;2002;48.812;9.180;2023-02-28T10:28:17;8.43;;;2.20;;
3975;SDS011;2002;48.812;9.180;2023-02-28T10:30:44;5.30;;;1.90;;
3975;SDS011;2002;48.812;9.180;2023-02-28T10:33:22;3.90;;;2.20;;
3975;SDS011;2002;48.812;9.180;2023-02-28T10:35:59;4.90;;;2.77;;
3975;SDS011;2002;48.812;9.180;2023-02-28T10:38:34;3.60;;;2.40;;
3975;SDS011;2002;48.812;9.180;2023-02-28T10:43:35;3.70;;;2.00;;
3975;SDS011;2002;48.812;9.180;2023-02-28T10:48:40;6.47;;;2.00;;
3975;SDS011;2002;48.812;9.180;2023-02-28T10:51:11;6.33;;;1.90;;
3975;SDS011;2002;48.812;9.180;2023-02-28T10:56:20;5.07;;;2.57;;
3975;SDS011;2002;48.812;9.180;2023-02-28T10:58:57;6.90;;;3.43;;
3975;SDS011;2002;48.812;9.180;2023-02-28T11:04:17;9.40;;;2.63;;
3975;SDS011;2002;48.812;9.180;2023-02-28T11:06:44;5.33;;;2.10;;
3975;SDS011;2002;48.812;9.180;2023-02-28T11:12:45;4.53;;;2.20;;
3975;SDS011;2002;48.812;9.180;2023-02-28T11:17:53;2.97;;;2.00;;
3975;SDS011;2002;48.812;9.180;2023-02-28T11:20:28;4.00;;;1.93;;
3975;SDS011;2002;48.812;9.180;2023-02-28T11:22:58;5.00;;;2.67;;
3975;SDS011;2002;48.812;9.180;2023-02-28T11:25:26;5.40;;;2.70;;
3975;SDS011;2002;48.812;9.180;2023-02-28T11:28:04;2.43;;;1.97;;
3975;SDS011;2002;48.812;9.180;2023-02-28T11:30:49;6.13;;;2.50;;
3975;SDS011;2002;48.812;9.180;2023-02-28T11:33:53;4.37;;;2.80;;
3975;SDS011;2002;48.812;9.180;2023-02-28T11:36:22;8.00;;;2.77;;
3975;SDS011;2002;48.812;9.180;2023-02-28T11:38:50;4.10;;;2.10;;
3975;SDS011;2002;48.812;9.180;2023-02-28T11:41:37;5.30;;;2.70;;
3975;SDS011;2002;48.812;9.180;2023-02-28T11:50:08;4.77;;;2.00;;
3975;SDS011;2002;48.812;9.180;2023-02-28T11:52:51;5.23;;;2.17;;
3975;SDS011;2002;48.812;9.180;2023-02-28T11:57:56;5.87;;;2.90;;
3975;SDS011;2002;48.812;9.180;2023-02-28T12:03:16;2.13;;;1.97;;
3975;SDS011;2002;48.812;9.180;2023-02-28T12:05:44;5.10;;;2.40;;
3975;SDS011;2002;48.812;9.180;2023-02-28T12:17:11;3.60;;;2.53;;
3975;SDS011;2002;48.812;9.180;2023-02-28T12:20:02;2.60;;;2.33;;
3975;SDS011;2002;48.812;9.180;2023-02-28T12:27:55;3.30;;;2.40;;
3975;SDS011;2002;48.812;9.180;2023-02-28T12:33:04;3.30;;;2.20;;
3975;SDS011;2002;48.812;9.180;2023-02-28T12:35:34;2.93;;;2.20;;
3975;SDS011;2002;48.812;9.180;2023-02-28T12:38:10;3.00;;;2.10;;
3975;SDS011;2002;48.812;9.180;2023-02-28T12:40:47;3.20;;;2.17;;
3975;SDS011;2002;48.812;9.180;2023-02-28T12:43:25;2.73;;;2.40;;
3975;SDS011;2002;48.812;9.180;2023-02-28T12:45:58;2.53;;;2.33;;
3975;SDS011;2002;48.812;9.180;2023-02-28T12:48:39;2.77;;;2.45;;
3975;SDS011;2002;48.812;9.180;2023-02-28T12:51:08;3.40;;;2.97;;
3975;SDS011;2002;48.812;9.180;2023-02-28T12:59:25;3.17;;;2.40;;
3975;SDS011;2002;48.812;9.180;2023-02-28T13:02:01;2.80;;;2.00;;
3975;SDS011;2002;48.812;9.180;2023-02-28T13:04:32;2.30;;;2.10;;
3975;SDS011;2002;48.812;9.180;2023-02-28T13:09:39;3.50;;;2.40;;
3975;SDS011;2002;48.812;9.180;2023-02-28T13:12:12;2.30;;;2.10;;
3975;SDS011;2002;48.812;9.180;2023-02-28T13:14:39;3.23;;;3.03;;
3975;SDS011;2002;48.812;9.180;2023-02-28T13:19:34;4.83;;;2.47;;
3975;SDS011;2002;48.812;9.180;2023-02-28T13:22:03;5.03;;;2.07;;
3975;SDS011;2002;48.812;9.180;2023-02-28T13:29:42;2.57;;;2.27;;
3975;SDS011;2002;48.812;9.180;2023-02-28T13:34:35;3.70;;;2.80;;
3975;SDS011;2002;48.812;9.180;2023-02-28T13:39:51;3.23;;;2.60;;
3975;SDS011;2002;48.812;9.180;2023-02-28T13:45:32;4.40;;;2.70;;
3975;SDS011;2002;48.812;9.180;2023-02-28T13:47:33;2.50;;;2.30;;
3975;SDS011;2002;48.812;9.180;2023-02-28T14:06:35;2.60;;;2.37;;
3975;SDS011;2002;48.812;9.180;2023-02-28T14:09:06;2.83;;;2.27;;
3975;SDS011;2002;48.812;9.180;2023-02-28T14:11:48;3.30;;;2.60;;
3975;SDS011;2002;48.812;9.180;2023-02-28T14:17:05;4.87;;;2.17;;
3975;SDS011;2002;48.812;9.180;2023-02-28T14:19:34;3.80;;;2.63;;
3975;SDS011;2002;48.812;9.180;2023-02-28T14:22:12;1.87;;;1.60;;
3975;SDS011;2002;48.812;9.180;2023-02-28T14:27:42;2.37;;;2.17;;
3975;SDS011;2002;48.812;9.180;2023-02-28T14:38:50;3.60;;;1.90;;
3975;SDS011;2002;48.812;9.180;2023-02-28T14:41:14;3.30;;;2.30;;
3975;SDS011;2002;48.812;9.180;2023-02-28T14:43:51;3.57;;;3.00;;
3975;SDS011;2002;48.812;9.180;2023-02-28T14:46:28;3.37;;;2.13;;
3975;SDS011;2002;48.812;9.180;2023-02-28T14:49:01;2.33;;;2.13;;
3975;SDS011;2002;48.812;9.180;2023-02-28T14:51:29;2.67;;;2.47;;
3975;SDS011;2002;48.812;9.180;2023-02-28T14:53:59;2.50;;;1.97;;
3975;SDS011;2002;48.812;9.180;2023-02-28T14:56:48;2.17;;;1.97;;
3975;SDS011;2002;48.812;9.180;2023-02-28T14:59:23;2.20;;;2.00;;
3975;SDS011;2002;48.812;9.180;2023-02-28T15:01:52;2.70;;;2.20;;
3975;SDS011;2002;48.812;9.180;2023-02-28T15:04:32;2.20;;;1.80;;
3975;SDS011;2002;48.812;9.180;2023-02-28T15:07:11;2.30;;;2.10;;
3975;SDS011;2002;48.812;9.180;2023-02-28T15:09:39;2.27;;;2.07;;
3975;SDS011;2002;48.812;9.180;2023-02-28T15:12:06;2.60;;;2.30;;
3975;SDS011;2002;48.812;9.180;2023-02-28T15:14:32;2.60;;;2.27;;
3975;SDS011;2002;48.812;9.180;2023-02-28T15:17:05;2.40;;;2.03;;
3975;SDS011;2002;48.812;9.180;2023-02-28T15:19:34;2.30;;;2.10;;
3975;SDS011;2002;48.812;9.180;2023-02-28T15:22:06;2.23;;;2.03;;
3975;SDS011;2002;48.812;9.180;2023-02-28T15:24:39;2.93;;;2.70;;
3975;SDS011;2002;48.812;9.180;2023-02-28T15:27:12;2.70;;;2.47;;
3975;SDS011;2002;48.812;9.180;2023-02-28T15:29:48;2.50;;;1.90;;
3975;SDS011;2002;48.812;9.180;2023-02-28T15:40:40;3.23;;;2.30;;
3975;SDS011;2002;48.812;9.180;2023-02-28T15:43:15;2.53;;;2.33;;
3975;SDS011;2002;48.812;9.180;2023-02-28T15:45:47;3.90;;;2.30;;
3975;SDS011;2002;48.812;9.180;2023-02-28T15:50:55;2.53;;;2.33;;
3975;SDS011;2002;48.812;9.180;2023-02-28T15:53:42;2.70;;;2.50;;
3975;SDS011;2002;48.812;9.180;2023-02-28T15:58:44;3.40;;;2.50;;
3975;SDS011;2002;48.812;9.180;2023-02-28T16:01:17;2.47;;;2.27;;
3975;SDS011;2002;48.812;9.180;2023-02-28T16:03:48;3.20;;;2.77;;
3975;SDS011;2002;48.812;9.180;2023-02-28T16:08:41;2.60;;;2.37;;
3975;SDS011;2002;48.812;9.180;2023-02-28T16:11:08;2.33;;;2.13;;
3975;SDS011;2002;48.812;9.180;2023-02-28T16:13:35;1.93;;;1.83;;
3975;SDS011;2002;48.812;9.180;2023-02-28T16:16:01;3.40;;;2.93;;
3975;SDS011;2002;48.812;9.180;2023-02-28T16:18:27;2.70;;;2.50;;
3975;SDS011;2002;48.812;9.180;2023-02-28T16:20:53;2.53;;;2.33;;
3975;SDS011;2002;48.812;9.180;2023-02-28T16:23:18;5.00;;;4.10;;
3975;SDS011;2002;48.812;9.180;2023-02-28T16:25:44;4.93;;;2.10;;
3975;SDS011;2002;48.812;9.180;2023-02-28T16:28:24;2.53;;;2.27;;
3975;SDS011;2002;48.812;9.180;2023-02-28T16:30:56;2.53;;;2.33;;
3975;SDS011;2002;48.812;9.180;2023-02-28T16:33:21;2.40;;;2.20;;
3975;SDS011;2002;48.812;9.180;2023-02-28T16:35:47;2.63;;;2.00;;
3975;SDS011;2002;48.812;9.180;2023-02-28T16:38:12;2.57;;;2.13;;
3975;SDS011;2002;48.812;9.180;2023-02-28T16:40:39;3.63;;;3.27;;
3975;SDS011;2002;48.812;9.180;2023-02-28T16:43:07;2.73;;;2.50;;
3975;SDS011;2002;48.812;9.180;2023-02-28T16:45:37;3.00;;;2.47;;
3975;SDS011;2002;48.812;9.180;2023-02-28T16:48:02;2.57;;;2.10;;
3975;SDS011;2002;48.812;9.180;2023-02-28T16:50:29;2.03;;;1.93;;
3975;SDS011;2002;48.812;9.180;2023-02-28T16:52:57;2.50;;;2.27;;
3975;SDS011;2002;48.812;9.180;2023-02-28T16:55:23;2.60;;;2.40;;
3975;SDS011;2002;48.812;9.180;2023-02-28T16:57:54;3.03;;;2.70;;
3975;SDS011;2002;48.812;9.180;2023-02-28T17:00:22;3.57;;;2.93;;
3975;SDS011;2002;48.812;9.180;2023-02-28T17:02:48;4.60;;;2.50;;
3975;SDS011;2002;48.812;9.180;2023-02-28T17:05:14;2.90;;;2.70;;
3975;SDS011;2002;48.812;9.180;2023-02-28T17:07:40;2.93;;;2.60;;
3975;SDS011;2002;48.812;9.180;2023-02-28T17:10:25;2.60;;;2.13;;
3975;SDS011;2002;48.812;9.180;2023-02-28T17:12:51;2.53;;;2.30;;
3975;SDS011;2002;48.812;9.180;2023-02-28T17:15:18;2.60;;;2.40;;
3975;SDS011;2002;48.812;9.180;2023-02-28T17:17:45;2.77;;;2.33;;
3975;SDS011;2002;48.812;9.180;2023-02-28T17:20:21;2.10;;;1.90;;
3975;SDS011;2002;48.812;9.180;2023-02-28T17:22:48;2.50;;;2.30;;
3975;SDS011;2002;48.812;9.180;2023-02-28T17:25:16;2.30;;;2.10;;
3975;SDS011;2002;48.812;9.180;2023-02-28T17:27:42;2.43;;;2.23;;
3975;SDS011;2002;48.812;9.180;2023-02-28T17:30:18;3.20;;;2.10;;
3975;SDS011;2002;48.812;9.180;2023-02-28T17:32:45;2.50;;;2.30;;
3975;SDS011;2002;48.812;9.180;2023-02-28T17:35:11;2.57;;;2.37;;
3975;SDS011;2002;48.812;9.180;2023-02-28T17:37:37;2.30;;;2.10;;
3975;SDS011;2002;48.812;9.180;2023-02-28T17:40:04;2.53;;;2.33;;
3975;SDS011;2002;48.812;9.180;2023-02-28T17:42:30;2.53;;;2.20;;
3975;SDS011;2002;48.812;9.180;2023-02-28T17:44:55;2.40;;;2.20;;
3975;SDS011;2002;48.812;9.180;2023-02-28T17:47:21;3.70;;;2.40;;
3975;SDS011;2002;48.812;9.180;2023-02-28T17:49:47;2.83;;;2.43;;
3975;SDS011;2002;48.812;9.180;2023-02-28T17:52:12;2.80;;;2.53;;
3975;SDS011;2002;48.812;9.180;2023-02-28T17:54:38;2.70;;;2.23;;
3975;SDS011;2002;48.812;9.180;2023-02-28T17:57:03;2.37;;;2.17;;
3975;SDS011;2002;48.812;9.180;2023-02-28T17:59:29;3.20;;;2.77;;
3975;SDS011;2002;48.812;9.180;2023-02-28T18:01:58;2.60;;;2.40;;
3975;SDS011;2002;48.812;9.180;2023-02-28T18:04:25;2.60;;;2.40;;
3975;SDS011;2002;48.812;9.180;2023-02-28T18:06:52;2.47;;;1.87;;
3975;SDS011;2002;48.812;9.180;2023-02-28T18:09:21;2.20;;;2.00;;
3975;SDS011;2002;48.812;9.180;2023-02-28T18:11:48;2.53;;;2.33;;
3975;SDS011;2002;48.812;9.180;2023-02-28T18:14:15;2.80;;;2.60;;
3975;SDS011;2002;48.812;9.180;2023-02-28T18:16:42;2.50;;;2.30;;